createdAt,value
2019-01-05T00:01:03.911Z,15.00
2019-01-05T00:03:50.530Z,15.27
2019-01-05T00:06:23.270Z,14.27
2019-01-05T00:09:02.096Z,15.30
2019-01-05T00:11:34.869Z,13.80
2019-01-05T00:14:10.954Z,13.70
2019-01-05T00:16:41.161Z,14.27
2019-01-05T00:19:23.625Z,14.63
2019-01-05T00:21:54.830Z,14.30
2019-01-05T00:24:28.166Z,12.93
2019-01-05T00:27:02.261Z,13.47
2019-01-05T00:29:39.117Z,14.87
2019-01-05T00:32:27.338Z,14.27
2019-01-05T00:35:09.675Z,14.20
2019-01-05T00:37:57.280Z,13.77
2019-01-05T00:40:27.985Z,13.37
2019-01-05T00:42:58.172Z,13.53
2019-01-05T00:45:46.677Z,13.97
2019-01-05T00:48:20.627Z,13.47
2019-01-05T00:50:51.044Z,13.53
2019-01-05T00:53:33.410Z,12.00
2019-01-05T00:56:18.713Z,13.17
2019-01-05T00:58:51.937Z,12.67
2019-01-05T01:01:22.173Z,15.47
2019-01-05T01:03:57.973Z,13.47
2019-01-05T01:06:40.005Z,12.70
2019-01-05T01:12:17.083Z,12.67
2019-01-05T01:14:49.848Z,11.87
2019-01-05T01:17:22.433Z,13.90
2019-01-05T01:19:52.504Z,13.33
2019-01-05T01:22:39.108Z,12.37
2019-01-05T01:25:21.153Z,12.50
2019-01-05T01:28:08.086Z,12.97
2019-01-05T01:30:38.215Z,11.60
2019-01-05T01:33:11.649Z,12.30
2019-01-05T01:35:47.742Z,12.40
2019-01-05T01:38:30.273Z,11.80
2019-01-05T01:41:18.325Z,12.30
2019-01-05T01:43:48.809Z,11.50
2019-01-05T01:46:48.022Z,12.30
2019-01-05T01:49:36.175Z,11.60
2019-01-05T01:52:23.211Z,12.70
2019-01-05T01:54:55.711Z,12.47
2019-01-05T01:57:27.763Z,13.23
2019-01-05T02:00:19.053Z,13.30
2019-01-05T02:03:08.752Z,11.50
2019-01-05T02:05:56.855Z,12.77
2019-01-05T02:08:30.273Z,11.23
2019-01-05T02:11:19.479Z,11.70
2019-01-05T02:13:52.649Z,14.40
2019-01-05T02:16:42.642Z,12.47
2019-01-05T02:19:18.348Z,11.63
2019-01-05T02:22:21.597Z,13.87
2019-01-05T02:25:15.817Z,12.40
2019-01-05T02:28:03.408Z,13.93
2019-01-05T02:30:48.093Z,11.93
2019-01-05T02:33:46.120Z,13.17
2019-01-05T02:36:49.088Z,14.17
2019-01-05T02:39:25.060Z,13.07
2019-01-05T02:42:37.526Z,12.37
2019-01-05T02:45:39.313Z,11.87
2019-01-05T02:48:33.301Z,12.90
2019-01-05T02:51:12.397Z,13.30
2019-01-05T02:54:21.912Z,13.00
2019-01-05T02:57:22.084Z,13.30
2019-01-05T03:00:40.367Z,12.83
2019-01-05T03:03:37.372Z,12.40
2019-01-05T03:06:22.141Z,12.17
2019-01-05T03:09:31.600Z,12.03
2019-01-05T03:12:21.382Z,11.90
2019-01-05T03:15:18.389Z,13.50
2019-01-05T03:18:23.888Z,12.20
2019-01-05T03:21:27.121Z,12.97
2019-01-05T03:24:17.956Z,13.10
2019-01-05T03:27:22.662Z,12.93
2019-01-05T03:30:07.769Z,11.87
2019-01-05T03:33:04.660Z,12.87
2019-01-05T03:36:13.887Z,11.70
2019-01-05T03:38:55.281Z,12.00
2019-01-05T03:41:36.477Z,13.20
2019-01-05T03:47:42.042Z,12.67
2019-01-05T03:50:52.936Z,12.37
2019-01-05T03:54:00.801Z,13.20
2019-01-05T03:57:01.907Z,13.73
2019-01-05T04:00:11.534Z,15.13
2019-01-05T04:03:07.063Z,13.53
2019-01-05T04:06:11.466Z,14.50
2019-01-05T04:09:18.091Z,12.53
2019-01-05T04:12:11.320Z,14.60
2019-01-05T04:15:03.339Z,12.83
2019-01-05T04:18:09.333Z,12.73
2019-01-05T04:21:15.761Z,12.10
2019-01-05T04:24:03.491Z,14.50
2019-01-05T04:26:59.378Z,13.47
2019-01-05T04:29:41.022Z,13.90
2019-01-05T04:32:33.199Z,13.07
2019-01-05T04:35:12.188Z,15.50
2019-01-05T04:38:19.706Z,15.43
2019-01-05T04:41:15.714Z,14.77
2019-01-05T04:44:36.921Z,14.50
2019-01-05T04:47:24.141Z,16.20
2019-01-05T04:50:28.449Z,15.40
2019-01-05T04:53:45.941Z,16.97
2019-01-05T04:56:53.803Z,17.40
2019-01-05T04:59:50.666Z,16.30
2019-01-05T05:02:40.358Z,15.37
2019-01-05T05:05:47.825Z,17.97
2019-01-05T05:08:40.617Z,16.77
2019-01-05T05:11:36.098Z,17.77
2019-01-05T05:14:35.819Z,17.67
2019-01-05T05:17:47.305Z,17.00
2019-01-05T05:20:39.670Z,15.50
2019-01-05T05:23:32.821Z,16.50
2019-01-05T05:26:20.759Z,18.10
2019-01-05T05:29:12.050Z,16.67
2019-01-05T05:32:24.440Z,18.00
2019-01-05T05:35:18.585Z,17.50
2019-01-05T05:38:20.480Z,17.60
2019-01-05T05:41:27.146Z,18.40
2019-01-05T05:44:19.983Z,19.23
2019-01-05T05:47:10.684Z,21.33
2019-01-05T05:50:09.349Z,18.87
2019-01-05T05:53:07.643Z,20.00
2019-01-05T05:56:03.596Z,18.20
2019-01-05T05:59:12.749Z,18.80
2019-01-05T06:02:17.758Z,17.03
2019-01-05T06:05:18.139Z,16.77
2019-01-05T06:08:27.829Z,16.60
2019-01-05T06:11:09.624Z,18.40
2019-01-05T06:14:14.674Z,16.30
2019-01-05T06:17:10.184Z,17.27
2019-01-05T06:20:20.691Z,16.80
2019-01-05T06:26:18.561Z,16.30
2019-01-05T06:29:30.729Z,17.20
2019-01-05T06:32:43.155Z,16.37
2019-01-05T06:35:35.644Z,17.90
2019-01-05T06:38:28.563Z,17.00
2019-01-05T06:41:13.613Z,17.40
2019-01-05T06:44:06.337Z,16.87
2019-01-05T06:47:28.221Z,16.33
2019-01-05T06:50:43.304Z,17.07
2019-01-05T06:53:41.894Z,16.97
2019-01-05T06:56:20.881Z,18.67
2019-01-05T06:59:12.276Z,17.30
2019-01-05T07:02:20.098Z,18.10
2019-01-05T07:05:13.677Z,16.70
2019-01-05T07:08:18.301Z,15.77
2019-01-05T07:11:12.442Z,16.10
2019-01-05T07:14:31.336Z,17.13
2019-01-05T07:17:15.916Z,15.73
2019-01-05T07:20:13.145Z,17.70
2019-01-05T07:23:08.308Z,14.93
2019-01-05T07:26:17.682Z,15.20
2019-01-05T07:29:15.946Z,15.87
2019-01-05T07:32:04.206Z,16.43
2019-01-05T07:35:15.502Z,16.67
2019-01-05T07:38:08.459Z,18.67
2019-01-05T07:41:10.394Z,17.40
2019-01-05T07:44:19.849Z,15.33
2019-01-05T07:47:30.703Z,14.50
2019-01-05T07:50:04.044Z,12.13
2019-01-05T07:52:37.179Z,11.87
2019-01-05T07:55:42.335Z,12.40
2019-01-05T07:58:34.690Z,10.70
2019-01-05T08:01:40.966Z,11.20
2019-01-05T08:04:53.361Z,10.33
2019-01-05T08:07:26.495Z,9.93
2019-01-05T08:10:16.918Z,11.13
2019-01-05T08:13:24.905Z,10.13
2019-01-05T08:16:10.103Z,11.50
2019-01-05T08:19:12.085Z,10.93
2019-01-05T08:22:06.442Z,8.93
2019-01-05T08:25:23.423Z,9.80
2019-01-05T08:28:31.717Z,9.33
2019-01-05T08:31:25.818Z,9.20
2019-01-05T08:34:13.656Z,10.07
2019-01-05T08:37:10.829Z,10.90
2019-01-05T08:40:18.612Z,9.67
2019-01-05T08:43:34.073Z,9.90
2019-01-05T08:46:41.382Z,10.30
2019-01-05T08:49:55.349Z,8.70
2019-01-05T08:53:01.568Z,9.40
2019-01-05T08:56:01.548Z,9.20
2019-01-05T08:58:46.557Z,9.30
2019-01-05T09:01:27.789Z,9.77
2019-01-05T09:04:20.617Z,9.03
2019-01-05T09:07:14.470Z,7.90
2019-01-05T09:10:14.825Z,8.20
2019-01-05T09:13:07.308Z,9.70
2019-01-05T09:16:09.050Z,9.60
2019-01-05T09:19:17.217Z,31.13
2019-01-05T09:22:32.256Z,12.70
2019-01-05T09:25:42.159Z,10.23
2019-01-05T09:28:28.229Z,9.60
2019-01-05T09:31:25.655Z,9.23
2019-01-05T09:34:22.602Z,8.77
2019-01-05T09:37:13.188Z,8.13
2019-01-05T09:40:30.212Z,8.97
2019-01-05T09:43:44.434Z,9.80
2019-01-05T09:46:29.168Z,8.33
2019-01-05T09:49:31.155Z,7.40
2019-01-05T09:52:34.480Z,8.63
2019-01-05T09:55:19.655Z,7.37
2019-01-05T09:58:31.760Z,7.97
2019-01-05T10:01:19.296Z,15.77
2019-01-05T10:04:24.261Z,8.43
2019-01-05T10:10:23.606Z,15.97
2019-01-05T10:13:21.013Z,12.83
2019-01-05T10:16:31.436Z,10.53
2019-01-05T10:19:25.424Z,9.13
2019-01-05T10:22:25.866Z,7.63
2019-01-05T10:25:35.236Z,6.90
2019-01-05T10:29:01.663Z,7.57
2019-01-05T10:32:13.820Z,7.90
2019-01-05T10:35:04.333Z,8.10
2019-01-05T10:37:56.694Z,6.50
2019-01-05T10:40:29.844Z,6.60
2019-01-05T10:43:23.329Z,6.80
2019-01-05T10:46:10.957Z,6.40
2019-01-05T10:49:15.540Z,7.50
2019-01-05T10:52:20.227Z,10.57
2019-01-05T10:55:27.639Z,7.50
2019-01-05T10:58:25.518Z,6.90
2019-01-05T11:00:58.662Z,7.57
2019-01-05T11:03:54.117Z,8.97
2019-01-05T11:06:49.604Z,8.07
2019-01-05T11:09:37.088Z,6.20
2019-01-05T11:12:46.605Z,5.90
2019-01-05T11:15:45.213Z,6.00
2019-01-05T11:18:29.914Z,6.30
2019-01-05T11:21:28.516Z,5.60
2019-01-05T11:24:25.363Z,6.23
2019-01-05T11:27:46.319Z,5.87
2019-01-05T11:30:25.164Z,7.20
2019-01-05T11:33:11.041Z,8.20
2019-01-05T11:35:56.052Z,6.57
2019-01-05T11:38:44.328Z,5.40
2019-01-05T11:41:26.437Z,5.63
2019-01-05T11:44:28.302Z,7.97
2019-01-05T11:47:23.638Z,5.97
2019-01-05T11:50:25.175Z,7.10
2019-01-05T11:57:01.108Z,9.47
2019-01-05T11:59:52.146Z,7.20
2019-01-05T12:02:34.017Z,4.87
2019-01-05T12:05:18.320Z,3.50
2019-01-05T12:08:06.376Z,8.13
2019-01-05T12:11:20.646Z,7.53
2019-01-05T12:14:25.470Z,4.60
2019-01-05T12:17:17.252Z,8.17
2019-01-05T12:20:14.161Z,5.73
2019-01-05T12:23:32.448Z,6.13
2019-01-05T12:26:39.219Z,8.20
2019-01-05T12:29:40.656Z,5.20
2019-01-05T12:32:47.132Z,4.60
2019-01-05T12:39:10.061Z,6.13
2019-01-05T12:42:26.132Z,5.83
2019-01-05T12:45:37.777Z,6.43
2019-01-05T12:48:19.520Z,5.00
2019-01-05T12:51:19.683Z,6.73
2019-01-05T12:54:14.493Z,5.00
2019-01-05T12:57:17.281Z,4.60
2019-01-05T12:59:59.024Z,6.27
2019-01-05T13:02:53.116Z,5.50
2019-01-05T13:05:54.652Z,4.83
2019-01-05T13:09:05.226Z,5.90
2019-01-05T13:12:19.284Z,5.80
2019-01-05T13:15:40.712Z,6.83
2019-01-05T13:18:35.021Z,7.93
2019-01-05T13:21:41.562Z,8.20
2019-01-05T13:24:29.295Z,8.73
2019-01-05T13:27:24.961Z,9.00
2019-01-05T13:30:32.714Z,6.83
2019-01-05T13:33:46.665Z,5.80
2019-01-05T13:36:19.821Z,5.20
2019-01-05T13:39:38.128Z,5.53
2019-01-05T13:42:45.819Z,5.80
2019-01-05T13:45:57.756Z,7.10
2019-01-05T13:49:13.194Z,6.93
2019-01-05T13:52:05.385Z,10.50
2019-01-05T13:54:54.033Z,5.57
2019-01-05T13:57:40.938Z,6.00
2019-01-05T14:00:15.162Z,8.10
2019-01-05T14:02:54.211Z,5.93
2019-01-05T14:05:33.369Z,5.50
2019-01-05T14:08:12.409Z,6.17
2019-01-05T14:10:58.842Z,6.50
2019-01-05T14:13:31.600Z,6.60
2019-01-05T14:16:37.183Z,5.90
2019-01-05T14:19:25.324Z,6.60
2019-01-05T14:21:55.386Z,7.10
2019-01-05T14:24:31.094Z,6.83
2019-01-05T14:27:06.962Z,6.90
2019-01-05T14:29:53.201Z,6.93
2019-01-05T14:32:23.296Z,5.97
2019-01-05T14:35:05.678Z,5.80
2019-01-05T14:37:42.726Z,26.60
2019-01-05T14:40:25.021Z,19.93
2019-01-05T14:42:59.189Z,14.30
2019-01-05T14:45:45.291Z,6.30
2019-01-05T14:48:16.320Z,9.20
2019-01-05T14:50:46.403Z,21.03
2019-01-05T14:53:32.776Z,20.20
2019-01-05T14:56:14.975Z,8.03
2019-01-05T14:58:54.075Z,13.13
2019-01-05T15:01:27.166Z,18.50
2019-01-05T15:04:13.531Z,12.50
2019-01-05T15:06:46.550Z,11.70
2019-01-05T15:09:22.655Z,11.53
2019-01-05T15:12:10.738Z,8.13
2019-01-05T15:14:40.786Z,8.03
2019-01-05T15:17:19.828Z,11.10
2019-01-05T15:19:49.873Z,16.53
2019-01-05T15:22:36.219Z,12.50
2019-01-05T15:25:15.736Z,10.60
2019-01-05T15:28:02.342Z,11.77
2019-01-05T15:30:48.689Z,10.67
2019-01-05T15:33:34.057Z,8.77
2019-01-05T15:36:20.829Z,9.43
2019-01-05T15:38:56.651Z,7.93
2019-01-05T15:41:26.711Z,8.73
2019-01-05T15:44:05.791Z,9.23
2019-01-05T15:46:42.255Z,8.43
2019-01-05T15:49:07.657Z,7.07
2019-01-05T15:51:46.919Z,8.70
2019-01-05T15:54:33.715Z,8.27
2019-01-05T15:57:21.869Z,8.23
2019-01-05T15:59:57.792Z,7.53
2019-01-05T16:02:27.914Z,8.87
2019-01-05T16:05:03.930Z,8.73
2019-01-05T16:07:46.017Z,9.03
2019-01-05T16:10:16.065Z,13.37
2019-01-05T16:13:02.325Z,11.90
2019-01-05T16:15:38.329Z,12.13
2019-01-05T16:18:23.504Z,6.93
2019-01-05T16:21:09.625Z,7.87
2019-01-05T16:23:42.639Z,8.80
2019-01-05T16:26:15.101Z,7.63
2019-01-05T16:28:57.261Z,8.57
2019-01-05T16:31:30.037Z,8.40
2019-01-05T16:34:03.041Z,8.60
2019-01-05T16:36:33.078Z,8.50
2019-01-05T16:39:12.202Z,9.43
2019-01-05T16:41:42.251Z,9.60
2019-01-05T16:44:28.839Z,11.20
2019-01-05T16:47:14.231Z,11.23
2019-01-05T16:49:47.047Z,10.07
2019-01-05T16:52:32.051Z,12.23
2019-01-05T16:55:04.660Z,8.73
2019-01-05T16:57:34.723Z,11.00
2019-01-05T17:00:21.664Z,9.73
2019-01-05T17:02:51.721Z,12.70
2019-01-05T17:05:24.546Z,14.40
2019-01-05T17:08:03.351Z,13.50
2019-01-05T17:10:39.363Z,11.20
2019-01-05T17:13:12.036Z,11.90
2019-01-05T17:15:45.073Z,12.90
2019-01-05T17:18:18.168Z,13.40
2019-01-05T17:21:04.494Z,12.23
2019-01-05T17:23:34.579Z,12.97
2019-01-05T17:26:20.860Z,12.40
2019-01-05T17:28:50.943Z,12.63
2019-01-05T17:31:21.014Z,11.70
2019-01-05T17:34:09.143Z,13.10
2019-01-05T17:36:57.600Z,12.90
2019-01-05T17:39:36.869Z,12.80
2019-01-05T17:42:18.875Z,12.90
2019-01-05T17:44:54.430Z,14.93
2019-01-05T17:47:40.721Z,12.53
2019-01-05T17:50:25.552Z,12.33
2019-01-05T17:53:10.905Z,16.37
2019-01-05T17:55:52.707Z,13.20
2019-01-05T17:58:22.799Z,13.10
2019-01-05T18:01:09.078Z,13.37
2019-01-05T18:03:55.079Z,12.17
2019-01-05T18:06:25.147Z,12.20
2019-01-05T18:08:58.377Z,12.63
2019-01-05T18:11:44.649Z,13.23
2019-01-05T18:14:31.073Z,12.13
2019-01-05T18:17:03.723Z,11.87
2019-01-05T18:19:33.863Z,20.07
2019-01-05T18:22:12.775Z,15.20
2019-01-05T18:24:45.615Z,13.50
2019-01-05T18:27:18.379Z,12.57
2019-01-05T18:32:42.457Z,17.20
2019-01-05T18:35:29.213Z,15.33
2019-01-05T18:38:04.948Z,14.40
2019-01-05T18:40:37.433Z,17.17
2019-01-05T18:43:13.492Z,25.30
2019-01-05T18:46:00.066Z,13.07
2019-01-05T18:48:45.162Z,13.50
2019-01-05T18:51:21.003Z,16.03
2019-01-05T18:54:16.313Z,30.93
2019-01-05T18:57:02.882Z,14.80
2019-01-05T18:59:49.473Z,17.80
2019-01-05T19:02:25.472Z,19.30
2019-01-05T19:05:12.033Z,20.33
2019-01-05T19:07:42.173Z,25.20
2019-01-05T19:10:22.071Z,19.23
2019-01-05T19:12:54.775Z,16.10
2019-01-05T19:15:24.913Z,17.30
2019-01-05T19:18:30.749Z,19.00
2019-01-05T19:21:10.142Z,15.67
2019-01-05T19:23:56.661Z,18.30
2019-01-05T19:26:44.728Z,16.33
2019-01-05T19:29:23.568Z,17.30
2019-01-05T19:32:02.713Z,17.50
2019-01-05T19:34:32.764Z,18.07
2019-01-05T19:37:20.823Z,16.80
2019-01-05T19:40:07.220Z,16.47
2019-01-05T19:42:37.283Z,15.97
2019-01-05T19:45:08.784Z,14.50
2019-01-05T19:47:55.172Z,19.63
2019-01-05T19:50:41.836Z,16.60
2019-01-05T19:53:14.840Z,15.47
2019-01-05T19:56:03.217Z,15.40
2019-01-05T19:58:33.272Z,14.43
2019-01-05T20:01:09.053Z,16.27
2019-01-05T20:03:42.064Z,14.30
2019-01-05T20:06:28.361Z,15.17
2019-01-05T20:09:04.134Z,14.40
2019-01-05T20:11:50.926Z,15.30
2019-01-05T20:14:20.968Z,14.83
2019-01-05T20:16:59.822Z,13.37
2019-01-05T20:19:47.921Z,11.90
2019-01-05T20:22:26.929Z,12.90
2019-01-05T20:24:56.984Z,14.80
2019-01-05T20:27:35.924Z,13.47
2019-01-05T20:30:11.447Z,13.33
2019-01-05T20:32:41.527Z,13.27
2019-01-05T20:35:11.660Z,11.43
2019-01-05T20:37:56.715Z,10.97
2019-01-05T20:40:26.900Z,11.70
2019-01-05T20:42:57.001Z,11.70
2019-01-05T20:45:32.857Z,12.57
2019-01-05T20:48:06.100Z,13.70
2019-01-05T20:50:39.275Z,16.93
2019-01-05T20:53:27.710Z,12.00
2019-01-05T20:56:13.657Z,14.10
2019-01-05T20:58:55.575Z,13.63
2019-01-05T21:01:25.661Z,14.37
2019-01-05T21:04:12.398Z,15.03
2019-01-05T21:06:48.552Z,9.87
2019-01-05T21:09:24.396Z,16.83
2019-01-05T21:11:56.898Z,11.00
2019-01-05T21:14:35.960Z,12.23
2019-01-05T21:17:14.950Z,14.30
2019-01-05T21:19:57.042Z,11.43
2019-01-05T21:22:43.544Z,12.83
2019-01-05T21:25:13.593Z,9.40
2019-01-05T21:27:46.376Z,10.43
2019-01-05T21:30:18.878Z,7.80
2019-01-05T21:33:05.361Z,7.33
2019-01-05T21:35:53.758Z,6.77
2019-01-05T21:38:29.438Z,5.83
2019-01-05T21:41:14.447Z,7.90
2019-01-05T21:43:53.479Z,8.77
2019-01-05T21:46:38.545Z,6.63
2019-01-05T21:49:17.701Z,7.23
2019-01-05T21:51:56.535Z,6.67
2019-01-05T21:54:32.488Z,9.57
2019-01-05T21:57:14.618Z,8.30
2019-01-05T21:59:59.956Z,5.20
2019-01-05T22:02:38.833Z,8.60
2019-01-05T22:05:24.948Z,7.37
2019-01-05T22:08:11.276Z,5.93
2019-01-05T22:10:46.998Z,8.13
2019-01-05T22:13:28.920Z,9.03
2019-01-05T22:16:14.993Z,10.03
2019-01-05T22:19:00.135Z,6.00
2019-01-05T22:21:30.169Z,6.70
2019-01-05T22:24:16.258Z,8.37
2019-01-05T22:26:46.327Z,9.50
2019-01-05T22:29:32.630Z,7.83
2019-01-05T22:32:08.398Z,15.10
2019-01-05T22:34:54.726Z,9.50
2019-01-05T22:37:36.765Z,10.73
2019-01-05T22:40:15.242Z,9.47
2019-01-05T22:43:03.312Z,11.27
2019-01-05T22:45:33.375Z,10.20
2019-01-05T22:48:15.170Z,11.80
2019-01-05T22:50:48.206Z,9.00
2019-01-05T22:53:24.429Z,8.40
2019-01-05T22:59:07.769Z,14.30
2019-01-05T23:01:37.976Z,11.93
2019-01-05T23:04:08.303Z,11.27
2019-01-05T23:06:54.321Z,9.97
2019-01-05T23:09:36.577Z,9.70
2019-01-05T23:12:06.626Z,8.07
2019-01-05T23:14:52.989Z,7.83
2019-01-05T23:17:39.482Z,6.30
2019-01-05T23:20:09.621Z,8.10
2019-01-05T23:22:39.674Z,7.90
2019-01-05T23:25:27.998Z,7.93
2019-01-05T23:28:13.056Z,7.90
2019-01-05T23:30:49.005Z,6.53
2019-01-05T23:33:21.747Z,6.37
2019-01-05T23:35:54.606Z,5.80
2019-01-05T23:38:24.649Z,5.30
2019-01-05T23:41:12.783Z,6.37
2019-01-05T23:43:45.265Z,6.07
2019-01-05T23:46:30.104Z,6.10
2019-01-05T23:49:06.211Z,6.90
2019-01-05T23:51:45.441Z,6.97
2019-01-05T23:54:15.498Z,6.83
2019-01-05T23:56:57.784Z,7.00
2019-01-05T23:59:39.688Z,7.17
